Stations météo

Publicité
Braemar, Grande-Bretagne (99089): Température de l'air & dewpoint: 20.06.2019 19:00:00 - 26.06.2019 19:00:00 (BST)Braemar, Grande-Bretagne (99089): Température de l'air -20cm & Température de l'air -100cm: 20.06.2019 19:00:00 - 26.06.2019 19:00:00 (BST)Braemar, Grande-Bretagne (99089): Quantités de précipitations: 20.06.2019 19:00:00 - 26.06.2019 19:00:00 (BST)
Date & Time tt [°C] td [°C] tt -20cm [°C] tt -100cm [°C] rr [mm]
26.06.2019 19:00:00 - - - - -
26.06.2019 18:00:00 20,7 8,2 - - 0,0
26.06.2019 17:00:00 21,2 7,4 - - 0,0
26.06.2019 16:00:00 20,9 8,2 - - 0,0
26.06.2019 15:00:00 20,0 8,4 - - 0,0
26.06.2019 14:00:00 19,5 8,6 - - 0,0
26.06.2019 13:00:00 18,3 6,3 - - 0,0
26.06.2019 12:00:00 16,8 5,6 - - 0,0
26.06.2019 11:00:00 15,3 5,3 - - 0,0
26.06.2019 10:00:00 13,7 7,0 12,5 11,2 0,0
26.06.2019 09:00:00 11,1 7,4 - - 0,0
26.06.2019 08:00:00 8,3 7,0 - - 0,0
26.06.2019 07:00:00 5,2 5,2 - - 0,0
26.06.2019 06:00:00 1,9 1,9 - - 0,0
26.06.2019 05:00:00 1,4 1,3 - - 0,0
26.06.2019 04:00:00 2,0 1,7 - - 0,0
26.06.2019 03:00:00 3,0 2,8 - - 0,0
26.06.2019 02:00:00 3,7 3,2 - - 0,0
26.06.2019 01:00:00 4,7 4,0 - - 0,0
26.06.2019 00:00:00 6,6 5,0 - - 0,0
25.06.2019 23:00:00 9,5 7,1 - - 0,0
25.06.2019 22:00:00 10,4 7,5 - - 0,0
25.06.2019 21:00:00 11,6 7,7 - - 0,0
25.06.2019 20:00:00 12,9 7,9 - - 0,0
25.06.2019 19:00:00 12,9 7,3 - - 0,0
25.06.2019 18:00:00 13,4 9,2 - - 0,0
25.06.2019 17:00:00 13,1 9,2 - - 0,0
25.06.2019 16:00:00 12,7 9,4 - - 0,0
25.06.2019 15:00:00 12,9 9,3 - - 0,0
25.06.2019 14:00:00 13,9 10,5 - - 0,0
25.06.2019 13:00:00 13,4 9,4 - - 0,0
25.06.2019 12:00:00 12,9 10,2 - - 0,0
25.06.2019 11:00:00 12,9 9,7 - - 0,0
25.06.2019 10:00:00 13,1 9,6 12,0 11,2 0,0
25.06.2019 09:00:00 12,7 9,6 - - 0,0
25.06.2019 08:00:00 12,6 9,6 - - 0,0
25.06.2019 07:00:00 10,9 9,4 - - 0,0
25.06.2019 06:00:00 10,2 9,8 - - 0,0
25.06.2019 05:00:00 9,3 9,2 - - 0,0
25.06.2019 04:00:00 9,1 9,0 - - 0,0
25.06.2019 03:00:00 8,3 7,9 - - 0,0
25.06.2019 02:00:00 9,9 9,5 - - 0,0
25.06.2019 01:00:00 10,6 10,1 - - 0,0
25.06.2019 00:00:00 10,8 10,3 - - 0,0
24.06.2019 23:00:00 11,0 10,2 - - 0,0
24.06.2019 22:00:00 11,3 10,2 - - 0,0
24.06.2019 21:00:00 11,5 10,0 - - 0,0
24.06.2019 20:00:00 11,8 10,6 - - 0,0
24.06.2019 19:00:00 12,0 10,8 - - 0,0
24.06.2019 18:00:00 12,3 10,6 - - 0,0
24.06.2019 17:00:00 12,1 10,9 - - 0,0
24.06.2019 16:00:00 12,1 11,0 - - 0,0
24.06.2019 15:00:00 11,9 10,9 - - 0,0
24.06.2019 14:00:00 11,9 11,0 - - 0,0
24.06.2019 13:00:00 11,4 10,8 - - 0,0
24.06.2019 12:00:00 10,9 10,8 - - 0,2
24.06.2019 11:00:00 10,7 10,5 - - 0,2
24.06.2019 10:00:00 10,5 10,2 12,4 11,2 0,4
24.06.2019 09:00:00 10,5 9,8 - - 0,0
24.06.2019 08:00:00 10,6 9,6 - - 0,8
24.06.2019 07:00:00 10,5 9,9 - - 2,6
24.06.2019 06:00:00 10,3 9,2 - - 0,8
24.06.2019 05:00:00 10,4 9,0 - - 0,0
24.06.2019 04:00:00 10,3 8,4 - - 0,0
24.06.2019 03:00:00 9,9 7,3 - - 0,0
24.06.2019 02:00:00 10,0 6,9 - - 0,0
24.06.2019 01:00:00 10,4 6,4 - - 0,0
24.06.2019 00:00:00 10,6 6,3 - - 0,0
23.06.2019 23:00:00 11,1 4,7 - - 0,0
23.06.2019 22:00:00 12,1 5,1 - - 0,0
23.06.2019 21:00:00 12,7 5,2 - - 0,0
23.06.2019 20:00:00 13,8 4,8 - - 0,0
23.06.2019 19:00:00 14,8 6,0 - - 0,0
23.06.2019 18:00:00 15,6 6,9 - - 0,0
23.06.2019 17:00:00 16,4 9,2 - - 0,0
23.06.2019 16:00:00 17,0 10,4 - - 0,0
23.06.2019 15:00:00 18,0 9,4 - - 0,0
23.06.2019 14:00:00 17,8 9,3 - - 0,0
23.06.2019 13:00:00 16,9 10,6 - - 0,0
23.06.2019 12:00:00 17,5 9,7 - - 0,0
23.06.2019 11:00:00 16,8 8,2 - - 0,0
23.06.2019 10:00:00 16,0 8,2 12,0 11,2 0,0
23.06.2019 09:00:00 13,0 8,8 - - 0,0
23.06.2019 08:00:00 9,2 7,5 - - 0,0
23.06.2019 07:00:00 7,0 6,6 - - 0,0
23.06.2019 06:00:00 5,9 5,7 - - 0,0
23.06.2019 05:00:00 5,6 5,2 - - 0,0
23.06.2019 04:00:00 6,1 5,2 - - 0,0
23.06.2019 03:00:00 7,3 6,6 - - 0,0
23.06.2019 02:00:00 8,2 7,0 - - 0,0
23.06.2019 01:00:00 8,9 7,7 - - 0,0
23.06.2019 00:00:00 9,2 7,7 - - 0,0
22.06.2019 23:00:00 10,3 7,6 - - 0,0
22.06.2019 22:00:00 12,5 7,7 - - 0,0
22.06.2019 21:00:00 13,8 7,3 - - 0,0
22.06.2019 20:00:00 14,1 7,8 - - 0,0
22.06.2019 19:00:00 14,2 6,9 - - 0,0
22.06.2019 18:00:00 14,3 6,0 - - 0,0
22.06.2019 17:00:00 14,7 6,6 - - 0,0
22.06.2019 16:00:00 14,3 6,2 - - 0,0
22.06.2019 15:00:00 13,7 7,0 - - 0,0
22.06.2019 14:00:00 14,6 6,5 - - 0,0
22.06.2019 13:00:00 15,1 7,2 - - 0,0
22.06.2019 12:00:00 15,8 5,5 - - 0,0
22.06.2019 11:00:00 15,1 5,2 - - 0,0
22.06.2019 10:00:00 14,4 7,9 12,2 10,9 0,0
22.06.2019 09:00:00 12,2 6,6 - - 0,0
22.06.2019 08:00:00 6,9 3,0 - - 0,0
22.06.2019 07:00:00 4,1 1,9 - - 0,0
22.06.2019 06:00:00 1,3 0,6 - - 0,0
22.06.2019 05:00:00 0,5 -0,1 - - 0,0
22.06.2019 04:00:00 0,8 -0,1 - - 0,0
22.06.2019 03:00:00 2,1 1,0 - - 0,0
22.06.2019 02:00:00 3,0 1,6 - - 0,0
22.06.2019 01:00:00 4,3 2,0 - - 0,0
22.06.2019 00:00:00 6,8 3,7 - - 0,0
21.06.2019 23:00:00 8,2 4,1 - - 0,0
21.06.2019 22:00:00 10,1 4,1 - - 0,0
21.06.2019 21:00:00 11,4 3,5 - - 0,0
21.06.2019 20:00:00 13,9 3,7 - - 0,0
21.06.2019 19:00:00 13,2 4,6 - - 0,0
21.06.2019 18:00:00 12,0 4,6 - - 0,0
21.06.2019 17:00:00 12,7 3,6 - - 0,0
21.06.2019 16:00:00 11,9 4,4 - - 0,0
21.06.2019 15:00:00 12,3 6,2 - - 0,0
21.06.2019 14:00:00 13,5 4,8 - - 0,0
21.06.2019 13:00:00 13,6 5,3 - - 0,0
21.06.2019 12:00:00 13,0 5,6 - - 0,0
21.06.2019 11:00:00 10,9 4,6 - - 0,0
21.06.2019 10:00:00 10,5 4,7 12,2 10,7 0,0
21.06.2019 09:00:00 9,4 4,3 - - 0,0
21.06.2019 08:00:00 9,7 4,0 - - 0,0
21.06.2019 07:00:00 7,7 3,4 - - 0,0
21.06.2019 06:00:00 7,3 4,1 - - 0,0
21.06.2019 05:00:00 7,1 4,0 - - 0,0
21.06.2019 04:00:00 7,1 3,7 - - 0,0
21.06.2019 03:00:00 7,2 4,7 - - 0,0
21.06.2019 02:00:00 7,3 4,5 - - 0,0
21.06.2019 01:00:00 7,5 4,7 - - 0,0
21.06.2019 00:00:00 7,9 5,0 - - 0,0
20.06.2019 23:00:00 6,9 5,1 - - 0,0
20.06.2019 22:00:00 8,9 5,0 - - 0,0
20.06.2019 21:00:00 9,2 5,5 - - 0,0
20.06.2019 20:00:00 10,8 5,4 - - 0,0
20.06.2019 19:00:00 11,7 5,1 - - 0,0

tt = Température de l'air
td = dewpoint
tt -20cm = Température de l'air -20cm
tt -100cm = Température de l'air -100cm
rr = Quantités de précipitations

stations d'obs. à proximité